sensor_id;sensor_type;location;lat;lon;timestamp;P1;P2;P0
50041;PMS7003;44598;51.606;5.912;2024-01-07T00:00:03;28.69;25.08;10.8
50041;PMS7003;44598;51.606;5.912;2024-01-07T00:13:22;29.29;25.41;11.13
50041;PMS7003;44598;51.606;5.912;2024-01-07T00:26:42;30.37;26.17;11.35
50041;PMS7003;44598;51.606;5.912;2024-01-07T00:53:21;30.25;26.39;11.13
50041;PMS7003;44598;51.606;5.912;2024-01-07T01:06:41;30.73;26.5;11.13
50041;PMS7003;44598;51.606;5.912;2024-01-07T01:33:20;37.94;30.75;12.33
50041;PMS7003;44598;51.606;5.912;2024-01-07T01:59:59;35.3;29.33;12.54
50041;PMS7003;44598;51.606;5.912;2024-01-07T02:13:19;33.25;27.91;11.45
50041;PMS7003;44598;51.606;5.912;2024-01-07T02:39:58;29.17;25.52;10.36
50041;PMS7003;44598;51.606;5.912;2024-01-07T03:06:38;29.77;25.3;10.69
50041;PMS7003;44598;51.606;5.912;2024-01-07T03:19:57;28.33;24.86;10.91
50041;PMS7003;44598;51.606;5.912;2024-01-07T03:33:17;27.01;24.21;10.26
50041;PMS7003;44598;51.606;5.912;2024-01-07T03:46:37;29.53;24.53;10.69
50041;PMS7003;44598;51.606;5.912;2024-01-07T03:59:56;24.73;22.79;9.71
50041;PMS7003;44598;51.606;5.912;2024-01-07T04:13:16;25.21;23.01;10.58
50041;PMS7003;44598;51.606;5.912;2024-01-07T04:26:36;23.17;21.92;10.15
50041;PMS7003;44598;51.606;5.912;2024-01-07T05:06:35;21.61;21.16;10.04
50041;PMS7003;44598;51.606;5.912;2024-01-07T05:19:54;21.49;21.05;10.58
50041;PMS7003;44598;51.606;5.912;2024-01-07T05:33:16;21.85;20.61;10.8
50041;PMS7003;44598;51.606;5.912;2024-01-07T05:46:36;20.89;20.83;10.26
50041;PMS7003;44598;51.606;5.912;2024-01-07T05:59:56;20.77;20.72;10.36
50041;PMS7003;44598;51.606;5.912;2024-01-07T06:13:15;20.65;20.72;10.04
50041;PMS7003;44598;51.606;5.912;2024-01-07T06:53:14;22.69;21.7;10.47
50041;PMS7003;44598;51.606;5.912;2024-01-07T07:06:34;27.13;24.32;11.56
50041;PMS7003;44598;51.606;5.912;2024-01-07T07:19:53;23.17;21.92;10.04
50041;PMS7003;44598;51.606;5.912;2024-01-07T07:33:13;22.69;21.92;10.58
50041;PMS7003;44598;51.606;5.912;2024-01-07T07:46:33;21.01;20.72;10.36
50041;PMS7003;44598;51.606;5.912;2024-01-07T07:59:52;22.33;21.37;10.04
50041;PMS7003;44598;51.606;5.912;2024-01-07T08:13:12;21.01;20.94;10.15
50041;PMS7003;44598;51.606;5.912;2024-01-07T08:26:31;20.41;20.72;9.93
50041;PMS7003;44598;51.606;5.912;2024-01-07T08:39:51;20.89;20.94;10.36
50041;PMS7003;44598;51.606;5.912;2024-01-07T09:06:30;19.21;19.74;10.15
50041;PMS7003;44598;51.606;5.912;2024-01-07T09:19:50;17.89;18.54;9.93
50041;PMS7003;44598;51.606;5.912;2024-01-07T09:33:10;20.53;19.74;9.93
50041;PMS7003;44598;51.606;5.912;2024-01-07T09:46:29;18.37;19.63;10.15
50041;PMS7003;44598;51.606;5.912;2024-01-07T10:26:28;17.17;18.76;10.15
50041;PMS7003;44598;51.606;5.912;2024-01-07T10:39:48;18.73;19.52;10.36
50041;PMS7003;44598;51.606;5.912;2024-01-07T10:53:07;15.73;17.45;9.38
50041;PMS7003;44598;51.606;5.912;2024-01-07T11:06:27;16.45;17.78;9.38
50041;PMS7003;44598;51.606;5.912;2024-01-07T11:19:47;16.09;17.89;9.6
50041;PMS7003;44598;51.606;5.912;2024-01-07T11:33:06;15.97;16.8;8.73
50041;PMS7003;44598;51.606;5.912;2024-01-07T11:46:26;13.33;15.27;8.18
50041;PMS7003;44598;51.606;5.912;2024-01-07T11:59:46;10.69;12.87;6.88
50041;PMS7003;44598;51.606;5.912;2024-01-07T12:26:25;8.41;10.8;6.44
50041;PMS7003;44598;51.606;5.912;2024-01-07T12:39:45;9.01;11.45;6.66
50041;PMS7003;44598;51.606;5.912;2024-01-07T12:53:04;7.81;10.04;5.24
50041;PMS7003;44598;51.606;5.912;2024-01-07T13:06:24;5.05;7.64;4.37
50041;PMS7003;44598;51.606;5.912;2024-01-07T13:19:43;4.21;6.99;4.04
50041;PMS7003;44598;51.606;5.912;2024-01-07T13:33:03;3.48;6.22;3.93
50041;PMS7003;44598;51.606;5.912;2024-01-07T13:46:23;4.45;6.44;3.61
50041;PMS7003;44598;51.606;5.912;2024-01-07T13:59:42;4.57;6.55;3.93
50041;PMS7003;44598;51.606;5.912;2024-01-07T14:26:21;4.81;6.66;3.82
50041;PMS7003;44598;51.606;5.912;2024-01-07T14:39:41;4.93;6.66;3.82
50041;PMS7003;44598;51.606;5.912;2024-01-07T14:53:01;3.12;6.11;3.39
50041;PMS7003;44598;51.606;5.912;2024-01-07T15:06:20;3.12;6.0;3.5
50041;PMS7003;44598;51.606;5.912;2024-01-07T15:19:40;2.76;5.57;3.06
50041;PMS7003;44598;51.606;5.912;2024-01-07T15:33:00;2.76;5.68;3.28
50041;PMS7003;44598;51.606;5.912;2024-01-07T15:46:19;2.88;5.68;2.84
50041;PMS7003;44598;51.606;5.912;2024-01-07T16:12:59;1.08;4.04;2.52
50041;PMS7003;44598;51.606;5.912;2024-01-07T16:26:18;1.08;4.15;2.41
50041;PMS7003;44598;51.606;5.912;2024-01-07T16:39:38;1.92;3.82;2.19
50041;PMS7003;44598;51.606;5.912;2024-01-07T16:52:57;0.96;4.04;2.62
50041;PMS7003;44598;51.606;5.912;2024-01-07T17:06:17;1.56;4.48;2.73
50041;PMS7003;44598;51.606;5.912;2024-01-07T17:19:37;2.28;5.24;2.84
50041;PMS7003;44598;51.606;5.912;2024-01-07T17:32:56;2.4;5.46;2.95
50041;PMS7003;44598;51.606;5.912;2024-01-07T17:46:16;25.09;23.55;9.49
50041;PMS7003;44598;51.606;5.912;2024-01-07T17:59:36;16.21;16.9;7.97
50041;PMS7003;44598;51.606;5.912;2024-01-07T18:12:55;54.02;48.19;20.83
50041;PMS7003;44598;51.606;5.912;2024-01-07T18:39:34;7.93;10.47;5.68
50041;PMS7003;44598;51.606;5.912;2024-01-07T18:52:54;9.25;11.67;5.79
50041;PMS7003;44598;51.606;5.912;2024-01-07T19:06:14;12.73;13.74;6.66
50041;PMS7003;44598;51.606;5.912;2024-01-07T19:19:33;12.37;14.07;6.33
50041;PMS7003;44598;51.606;5.912;2024-01-07T19:32:53;14.89;15.81;7.31
50041;PMS7003;44598;51.606;5.912;2024-01-07T19:46:13;14.41;16.14;7.31
50041;PMS7003;44598;51.606;5.912;2024-01-07T19:59:32;12.73;14.07;6.33
50041;PMS7003;44598;51.606;5.912;2024-01-07T20:12:52;12.97;14.72;6.77
50041;PMS7003;44598;51.606;5.912;2024-01-07T20:26:11;11.89;13.09;6.55
50041;PMS7003;44598;51.606;5.912;2024-01-07T20:39:31;12.25;14.4;6.22
50041;PMS7003;44598;51.606;5.912;2024-01-07T20:52:51;13.21;15.27;6.55
50041;PMS7003;44598;51.606;5.912;2024-01-07T21:06:10;13.93;15.49;6.99
50041;PMS7003;44598;51.606;5.912;2024-01-07T21:19:30;13.81;15.38;6.66
50041;PMS7003;44598;51.606;5.912;2024-01-07T21:32:49;13.69;15.6;6.55
50041;PMS7003;44598;51.606;5.912;2024-01-07T21:46:09;14.65;16.14;6.88
50041;PMS7003;44598;51.606;5.912;2024-01-07T21:59:29;12.73;14.62;6.77
50041;PMS7003;44598;51.606;5.912;2024-01-07T22:12:48;15.37;17.23;7.64
50041;PMS7003;44598;51.606;5.912;2024-01-07T22:26:08;16.57;17.34;7.97
50041;PMS7003;44598;51.606;5.912;2024-01-07T22:39:28;14.41;14.62;7.09
50041;PMS7003;44598;51.606;5.912;2024-01-07T22:52:47;12.85;14.18;6.33
50041;PMS7003;44598;51.606;5.912;2024-01-07T23:06:07;13.45;15.16;6.22
50041;PMS7003;44598;51.606;5.912;2024-01-07T23:32:46;14.41;15.81;7.53
50041;PMS7003;44598;51.606;5.912;2024-01-07T23:46:06;11.77;13.2;6.66
50041;PMS7003;44598;51.606;5.912;2024-01-07T23:59:25;12.01;13.85;6.55
